createdAt,value
2022-10-12T00:01:10.125Z,0.67
2022-10-12T00:03:39.571Z,0.30
2022-10-12T00:06:12.688Z,0.53
2022-10-12T00:08:40.990Z,0.30
2022-10-12T00:11:11.557Z,2.63
2022-10-12T00:13:38.166Z,0.70
2022-10-12T00:16:07.034Z,2.93
2022-10-12T00:18:34.777Z,0.10
2022-10-12T00:21:06.284Z,0.20
2022-10-12T00:23:34.185Z,1.43
2022-10-12T00:26:06.044Z,0.53
2022-10-12T00:28:33.498Z,1.97
2022-10-12T00:31:01.558Z,0.47
2022-10-12T00:33:29.414Z,0.53
2022-10-12T00:35:56.502Z,2.03
2022-10-12T00:38:23.611Z,0.60
2022-10-12T00:40:50.298Z,1.13
2022-10-12T00:43:39.165Z,3.90
2022-10-12T00:46:13.961Z,0.83
2022-10-12T00:48:41.659Z,0.30
2022-10-12T00:51:09.925Z,0.30
2022-10-12T00:53:43.062Z,0.77
2022-10-12T00:56:16.265Z,1.73
2022-10-12T00:58:43.982Z,1.23
2022-10-12T01:01:10.984Z,1.60
2022-10-12T01:03:37.966Z,0.70
2022-10-12T01:06:07.111Z,0.47
2022-10-12T01:08:34.424Z,0.23
2022-10-12T01:11:01.063Z,0.30
2022-10-12T01:13:27.933Z,0.57
2022-10-12T01:16:02.487Z,0.10
2022-10-12T01:18:33.656Z,0.93
2022-10-12T01:21:19.745Z,1.63
2022-10-12T01:24:05.283Z,0.37
2022-10-12T01:27:16.706Z,4.90
2022-10-12T01:30:05.487Z,0.70
2022-10-12T01:32:56.595Z,0.83
2022-10-12T01:35:38.314Z,0.30
2022-10-12T01:38:38.656Z,2.23
2022-10-12T01:41:29.403Z,0.37
2022-10-12T01:43:56.015Z,2.97
2022-10-12T01:46:25.606Z,0.47
2022-10-12T01:48:55.465Z,6.80
2022-10-12T01:51:53.396Z,0.37
2022-10-12T01:54:43.388Z,1.60
2022-10-12T01:57:19.044Z,0.67
2022-10-12T02:00:03.950Z,0.40
2022-10-12T02:02:55.073Z,0.40
2022-10-12T02:05:42.579Z,0.20
2022-10-12T02:08:09.106Z,1.93
2022-10-12T02:10:40.389Z,0.30
2022-10-12T02:13:14.412Z,0.43
2022-10-12T02:15:43.781Z,0.47
2022-10-12T02:18:15.667Z,0.57
2022-10-12T02:20:42.663Z,0.70
2022-10-12T02:23:10.491Z,0.20
2022-10-12T02:25:37.630Z,0.37
2022-10-12T02:28:12.069Z,0.50
2022-10-12T02:30:52.743Z,0.37
2022-10-12T02:33:26.190Z,2.70
2022-10-12T02:36:00.886Z,0.30
2022-10-12T02:38:39.947Z,0.17
2022-10-12T02:41:15.326Z,0.90
2022-10-12T02:44:01.229Z,1.83
2022-10-12T02:46:33.947Z,2.57
2022-10-12T02:49:02.805Z,1.50
2022-10-12T02:51:31.242Z,1.13
2022-10-12T02:54:00.398Z,0.70
2022-10-12T02:56:27.102Z,1.63
2022-10-12T02:58:53.760Z,0.93
2022-10-12T03:01:22.659Z,0.80
2022-10-12T03:03:49.328Z,2.13
2022-10-12T03:06:16.495Z,1.17
2022-10-12T03:08:43.142Z,1.57
2022-10-12T03:11:12.911Z,0.97
2022-10-12T03:13:39.536Z,0.83
2022-10-12T03:16:09.079Z,3.07
2022-10-12T03:18:36.459Z,1.53
2022-10-12T03:21:03.689Z,0.47
2022-10-12T03:23:30.887Z,2.23
2022-10-12T03:25:57.516Z,0.50
2022-10-12T03:28:26.757Z,1.00
2022-10-12T03:30:53.652Z,0.60
2022-10-12T03:33:20.341Z,2.87
2022-10-12T03:35:49.026Z,0.20
2022-10-12T03:38:16.984Z,0.93
2022-10-12T03:40:44.261Z,0.47
2022-10-12T03:43:11.616Z,0.30
2022-10-12T03:45:39.409Z,3.40
2022-10-12T03:48:08.415Z,3.97
2022-10-12T03:50:35.505Z,0.50
2022-10-12T03:53:04.015Z,1.83
2022-10-12T03:55:34.633Z,0.60
2022-10-12T03:58:01.302Z,3.93
2022-10-12T04:00:28.283Z,2.50
2022-10-12T04:03:02.326Z,1.03
2022-10-12T04:05:30.002Z,1.53
2022-10-12T04:07:56.942Z,3.03
2022-10-12T04:10:26.220Z,1.23
2022-10-12T04:12:52.930Z,1.53
2022-10-12T04:17:54.359Z,1.03
2022-10-12T04:20:20.990Z,1.70
2022-10-12T04:22:50.356Z,3.90
2022-10-12T04:25:17.063Z,1.20
2022-10-12T04:27:46.728Z,0.87
2022-10-12T04:30:13.685Z,0.83
2022-10-12T04:32:43.575Z,0.90
2022-10-12T04:35:12.489Z,0.50
2022-10-12T04:37:39.412Z,1.63
2022-10-12T04:40:06.841Z,1.50
2022-10-12T04:42:36.187Z,1.33
2022-10-12T04:45:02.910Z,4.20
2022-10-12T04:47:29.713Z,0.80
2022-10-12T04:49:56.380Z,0.97
2022-10-12T04:52:23.097Z,0.67
2022-10-12T04:54:49.732Z,1.07
2022-10-12T04:57:16.314Z,5.50
2022-10-12T04:59:43.165Z,0.73
2022-10-12T05:02:09.816Z,2.20
2022-10-12T05:04:36.421Z,2.03
2022-10-12T05:07:03.078Z,1.37
2022-10-12T05:09:29.723Z,2.40
2022-10-12T05:11:56.411Z,2.80
2022-10-12T05:14:23.010Z,0.80
2022-10-12T05:16:49.606Z,1.20
2022-10-12T05:19:16.217Z,2.30
2022-10-12T05:21:42.811Z,5.50
2022-10-12T05:24:10.788Z,1.10
2022-10-12T05:26:37.374Z,4.20
2022-10-12T05:29:04.871Z,1.10
2022-10-12T05:31:31.451Z,1.23
2022-10-12T05:33:58.154Z,3.10
2022-10-12T05:36:24.915Z,4.70
2022-10-12T05:38:51.503Z,1.83
2022-10-12T05:41:18.318Z,0.90
2022-10-12T05:43:44.922Z,1.50
2022-10-12T05:46:14.543Z,2.13
2022-10-12T05:48:41.348Z,5.80
2022-10-12T05:51:07.958Z,10.63
2022-10-12T05:53:34.558Z,2.53
2022-10-12T05:56:01.908Z,1.20
2022-10-12T05:58:30.438Z,3.70
2022-10-12T06:01:05.533Z,4.33
2022-10-12T06:03:34.980Z,4.23
2022-10-12T06:06:03.149Z,4.63
2022-10-12T06:08:31.334Z,4.50
2022-10-12T06:10:58.044Z,9.23
2022-10-12T06:13:25.407Z,6.40
2022-10-12T06:15:52.171Z,4.17
2022-10-12T06:18:19.588Z,4.50
2022-10-12T06:20:48.086Z,10.03
2022-10-12T06:23:15.188Z,2.03
2022-10-12T06:25:42.024Z,1.30
2022-10-12T06:28:08.657Z,2.67
2022-10-12T06:30:35.324Z,2.87
2022-10-12T06:33:02.000Z,1.60
2022-10-12T06:35:28.866Z,5.43
2022-10-12T06:37:55.493Z,2.00
2022-10-12T06:40:22.127Z,2.23
2022-10-12T06:42:49.710Z,1.93
2022-10-12T06:45:17.101Z,2.63
2022-10-12T06:47:43.786Z,6.83
2022-10-12T06:50:11.027Z,6.00
2022-10-12T06:52:38.353Z,5.03
2022-10-12T06:55:07.031Z,5.27
2022-10-12T06:57:33.654Z,4.77
2022-10-12T07:00:00.276Z,3.07
2022-10-12T07:02:26.943Z,3.10
2022-10-12T07:04:53.748Z,3.63
2022-10-12T07:07:20.407Z,2.73
2022-10-12T07:09:47.117Z,7.93
2022-10-12T07:12:13.711Z,1.07
2022-10-12T07:14:40.327Z,2.90
2022-10-12T07:17:06.937Z,1.70
2022-10-12T07:19:33.594Z,0.67
2022-10-12T07:22:00.825Z,2.53
2022-10-12T07:24:35.793Z,1.87
2022-10-12T07:27:09.927Z,2.20
2022-10-12T07:29:37.935Z,2.97
2022-10-12T07:32:05.286Z,2.27
2022-10-12T07:34:31.910Z,2.20
2022-10-12T07:36:59.923Z,2.50
2022-10-12T07:39:27.117Z,2.87
2022-10-12T07:41:54.321Z,3.57
2022-10-12T07:44:21.303Z,3.30
2022-10-12T07:46:48.273Z,2.40
2022-10-12T07:49:15.820Z,1.47
2022-10-12T07:51:43.195Z,2.10
2022-10-12T07:54:16.457Z,2.63
2022-10-12T07:56:46.750Z,3.40
2022-10-12T07:59:13.391Z,5.43
2022-10-12T08:01:40.088Z,7.20
2022-10-12T08:04:06.733Z,2.50
2022-10-12T08:06:34.304Z,6.33
2022-10-12T08:09:02.144Z,2.20
2022-10-12T08:11:29.723Z,2.50
2022-10-12T08:13:56.416Z,1.20
2022-10-12T08:16:24.028Z,2.87
2022-10-12T08:18:51.202Z,1.27
2022-10-12T08:21:18.366Z,1.60
2022-10-12T08:23:45.741Z,2.53
2022-10-12T08:26:13.671Z,6.13
2022-10-12T08:28:41.091Z,3.73
2022-10-12T08:31:16.569Z,0.97
2022-10-12T08:33:43.525Z,1.20
2022-10-12T08:36:11.906Z,1.53
2022-10-12T08:38:39.049Z,1.00
2022-10-12T08:41:22.728Z,1.37
2022-10-12T08:44:21.840Z,1.63
2022-10-12T08:46:49.282Z,1.63
2022-10-12T08:49:22.676Z,1.27
2022-10-12T08:51:55.421Z,0.57
2022-10-12T08:54:31.028Z,2.03
2022-10-12T08:56:58.136Z,1.40
2022-10-12T08:59:26.301Z,5.30
2022-10-12T09:01:59.440Z,1.00
2022-10-12T09:04:49.286Z,0.70
2022-10-12T09:07:43.961Z,3.40
2022-10-12T09:10:25.902Z,8.10
2022-10-12T09:12:59.480Z,0.60
2022-10-12T09:15:33.493Z,2.57
2022-10-12T09:18:02.749Z,0.40
2022-10-12T09:20:35.271Z,0.40
2022-10-12T09:23:30.741Z,0.20
2022-10-12T09:26:07.242Z,1.20
2022-10-12T09:28:37.733Z,1.23
2022-10-12T09:31:08.108Z,1.20
2022-10-12T09:33:57.129Z,0.87
2022-10-12T09:36:26.672Z,0.83
2022-10-12T09:38:53.864Z,0.93
2022-10-12T09:41:32.662Z,1.37
2022-10-12T09:44:01.739Z,1.97
2022-10-12T09:46:40.523Z,2.20
2022-10-12T09:49:07.203Z,1.73
2022-10-12T09:51:34.172Z,0.30
2022-10-12T09:54:05.956Z,2.33
2022-10-12T09:56:44.431Z,1.03
2022-10-12T09:59:29.231Z,0.90
2022-10-12T10:02:12.144Z,0.50
2022-10-12T10:04:40.448Z,0.90
2022-10-12T10:07:30.416Z,0.80
2022-10-12T10:10:10.270Z,1.60
2022-10-12T10:12:58.994Z,0.50
2022-10-12T10:15:28.030Z,2.93
2022-10-12T10:18:00.674Z,0.70
2022-10-12T10:20:29.899Z,0.83
2022-10-12T10:22:57.174Z,0.73
2022-10-12T10:25:24.703Z,0.30
2022-10-12T10:28:11.361Z,2.67
2022-10-12T10:30:41.039Z,0.83
2022-10-12T10:33:19.093Z,0.80
2022-10-12T10:36:18.098Z,1.53
2022-10-12T10:39:05.559Z,1.33
2022-10-12T10:41:37.429Z,1.20
2022-10-12T10:44:06.422Z,1.40
2022-10-12T10:46:36.406Z,0.97
2022-10-12T10:49:21.239Z,0.73
2022-10-12T10:51:53.237Z,2.20
2022-10-12T10:54:23.067Z,0.63
2022-10-12T10:56:53.293Z,1.33
2022-10-12T10:59:47.711Z,5.87
2022-10-12T11:02:38.468Z,0.57
2022-10-12T11:05:18.235Z,2.03
2022-10-12T11:07:51.307Z,0.50
2022-10-12T11:10:24.687Z,0.97
2022-10-12T11:12:57.387Z,2.47
2022-10-12T11:15:44.650Z,0.67
2022-10-12T11:18:22.134Z,0.83
2022-10-12T11:21:04.497Z,2.87
2022-10-12T11:23:55.091Z,2.30
2022-10-12T11:26:32.090Z,2.17
2022-10-12T11:29:00.675Z,1.33
2022-10-12T11:31:34.402Z,0.47
2022-10-12T11:34:13.321Z,0.60
2022-10-12T11:37:07.424Z,1.13
2022-10-12T11:39:37.185Z,0.30
2022-10-12T11:42:21.275Z,2.20
2022-10-12T11:44:49.011Z,1.00
2022-10-12T11:47:25.749Z,0.50
2022-10-12T11:50:33.143Z,1.20
2022-10-12T11:53:02.386Z,0.90
2022-10-12T11:55:41.158Z,0.93
2022-10-12T11:58:24.410Z,0.40
2022-10-12T12:01:07.370Z,0.43
2022-10-12T12:03:46.091Z,1.30
2022-10-12T12:06:30.999Z,0.50
2022-10-12T12:09:03.609Z,0.80
2022-10-12T12:11:32.866Z,0.93
2022-10-12T12:14:21.131Z,0.27
2022-10-12T12:16:49.633Z,0.40
2022-10-12T12:19:37.817Z,0.40
2022-10-12T12:22:16.334Z,0.40
2022-10-12T12:25:00.270Z,2.00
2022-10-12T12:27:33.906Z,1.40
2022-10-12T12:30:03.099Z,0.50
2022-10-12T12:33:06.787Z,0.40
2022-10-12T12:36:04.888Z,1.03
2022-10-12T12:38:49.435Z,3.10
2022-10-12T12:41:21.479Z,0.50
2022-10-12T12:43:57.030Z,1.10
2022-10-12T12:46:45.284Z,2.97
2022-10-12T12:49:39.764Z,0.83
2022-10-12T12:52:11.013Z,1.53
2022-10-12T12:54:53.166Z,0.70
2022-10-12T12:57:35.245Z,2.07
2022-10-12T13:00:10.996Z,0.67
2022-10-12T13:02:49.336Z,0.43
2022-10-12T13:05:24.955Z,1.07
2022-10-12T13:07:54.268Z,0.30
2022-10-12T13:10:36.081Z,5.23
2022-10-12T13:13:38.823Z,0.30
2022-10-12T13:17:23.850Z,2.50
2022-10-12T13:19:22.541Z,0.97
2022-10-12T13:21:52.370Z,1.57
2022-10-12T13:24:49.467Z,0.97
2022-10-12T13:27:40.974Z,0.60
2022-10-12T13:30:10.565Z,0.50
2022-10-12T13:32:59.313Z,0.40
2022-10-12T13:36:06.321Z,0.50
2022-10-12T13:38:35.383Z,0.67
2022-10-12T13:41:13.195Z,1.57
2022-10-12T13:43:46.524Z,0.27
2022-10-12T13:46:42.862Z,0.83
2022-10-12T13:49:20.179Z,0.70
2022-10-12T13:51:53.233Z,1.77
2022-10-12T13:54:47.785Z,0.50
2022-10-12T13:57:39.247Z,0.60
2022-10-12T14:00:17.868Z,0.90
2022-10-12T14:03:08.621Z,0.67
2022-10-12T14:05:44.320Z,2.63
2022-10-12T14:08:15.588Z,2.00
2022-10-12T14:10:44.562Z,0.23
2022-10-12T14:13:17.845Z,0.90
2022-10-12T14:15:44.699Z,0.80
2022-10-12T14:18:39.276Z,1.80
2022-10-12T14:21:23.399Z,2.00
2022-10-12T14:24:07.169Z,0.90
2022-10-12T14:26:37.272Z,2.20
2022-10-12T14:29:25.291Z,2.13
2022-10-12T14:31:57.413Z,3.47
2022-10-12T14:34:27.158Z,4.03
2022-10-12T14:37:24.124Z,4.87
2022-10-12T14:39:52.421Z,2.67
2022-10-12T14:42:18.957Z,1.50
2022-10-12T14:44:45.586Z,0.70
2022-10-12T14:47:33.122Z,0.10
2022-10-12T14:50:01.634Z,0.57
2022-10-12T14:52:28.565Z,0.77
2022-10-12T14:54:57.809Z,0.30
2022-10-12T14:57:27.131Z,0.77
2022-10-12T14:59:53.825Z,4.37
2022-10-12T15:02:27.171Z,1.13
2022-10-12T15:04:54.423Z,3.63
2022-10-12T15:07:24.003Z,0.63
2022-10-12T15:09:51.257Z,1.53
2022-10-12T15:12:26.574Z,1.77
2022-10-12T15:14:56.130Z,0.73
2022-10-12T15:17:22.832Z,0.60
2022-10-12T15:19:50.999Z,0.70
2022-10-12T15:22:21.737Z,0.97
2022-10-12T15:24:49.458Z,3.27
2022-10-12T15:27:16.257Z,2.30
2022-10-12T15:29:44.005Z,1.67
2022-10-12T15:32:12.457Z,0.70
2022-10-12T15:34:39.475Z,0.73
2022-10-12T15:37:12.062Z,4.13
2022-10-12T15:39:38.871Z,1.90
2022-10-12T15:42:05.586Z,3.43
2022-10-12T15:44:39.345Z,1.47
2022-10-12T15:47:08.959Z,4.63
2022-10-12T15:49:35.566Z,7.13
2022-10-12T15:52:02.256Z,3.73
2022-10-12T15:54:28.888Z,3.77
2022-10-12T15:56:55.720Z,3.57
2022-10-12T15:59:22.598Z,5.07
2022-10-12T16:01:49.198Z,3.23
2022-10-12T16:04:21.512Z,4.90
2022-10-12T16:06:48.122Z,4.23
2022-10-12T16:09:16.159Z,4.20
2022-10-12T16:11:42.770Z,3.10
2022-10-12T16:14:15.788Z,4.63
2022-10-12T16:16:42.370Z,4.77
2022-10-12T16:19:09.234Z,3.50
2022-10-12T16:21:35.850Z,6.57
2022-10-12T16:24:04.404Z,5.73
2022-10-12T16:26:33.167Z,9.40
2022-10-12T16:28:59.922Z,6.07
2022-10-12T16:31:26.578Z,5.33
2022-10-12T16:33:53.177Z,8.53
2022-10-12T16:36:19.780Z,6.60
2022-10-12T16:38:46.383Z,6.77
2022-10-12T16:41:15.851Z,14.63
2022-10-12T16:43:43.207Z,4.07
2022-10-12T16:46:10.175Z,5.63
2022-10-12T16:48:37.095Z,7.27
2022-10-12T16:51:14.920Z,5.07
2022-10-12T16:53:44.435Z,10.60
2022-10-12T16:56:11.218Z,9.87
2022-10-12T16:58:41.092Z,9.23
2022-10-12T17:01:12.148Z,6.30
2022-10-12T17:03:38.839Z,5.63
2022-10-12T17:06:05.770Z,4.53
2022-10-12T17:08:35.638Z,7.23
2022-10-12T17:11:07.238Z,4.70
2022-10-12T17:13:36.696Z,4.47
2022-10-12T17:16:23.527Z,6.13
2022-10-12T17:18:58.159Z,4.43
2022-10-12T17:21:26.273Z,9.13
2022-10-12T17:23:56.223Z,5.10
2022-10-12T17:26:22.979Z,1.73
2022-10-12T17:28:49.879Z,5.03
2022-10-12T17:31:16.656Z,5.30
2022-10-12T17:33:43.493Z,7.60
2022-10-12T17:36:11.164Z,13.40
2022-10-12T17:38:37.762Z,7.33
2022-10-12T17:41:05.377Z,9.77
2022-10-12T17:43:32.349Z,9.13
2022-10-12T17:45:59.221Z,11.53
2022-10-12T17:48:25.845Z,9.70
2022-10-12T17:50:52.443Z,8.73
2022-10-12T17:53:22.244Z,6.57
2022-10-12T17:55:49.264Z,7.17
2022-10-12T17:58:15.974Z,6.10
2022-10-12T18:00:42.597Z,5.93
2022-10-12T18:03:09.463Z,8.73
2022-10-12T18:05:36.152Z,7.97
2022-10-12T18:08:03.015Z,8.87
2022-10-12T18:10:29.662Z,6.87
2022-10-12T18:12:56.286Z,4.70
2022-10-12T18:15:23.269Z,3.37
2022-10-12T18:17:50.675Z,4.50
2022-10-12T18:20:18.599Z,7.10
2022-10-12T18:22:45.239Z,5.30
2022-10-12T18:25:11.883Z,3.97
2022-10-12T18:27:38.566Z,3.60
2022-10-12T18:30:05.583Z,3.60
2022-10-12T18:32:32.166Z,10.03
2022-10-12T18:34:58.775Z,3.43
2022-10-12T18:37:25.384Z,6.27
2022-10-12T18:39:52.242Z,3.97
2022-10-12T18:42:19.172Z,6.33
2022-10-12T18:44:45.995Z,4.33
2022-10-12T18:47:14.736Z,8.87
2022-10-12T18:49:41.404Z,3.70
2022-10-12T18:52:08.021Z,7.90
2022-10-12T18:54:34.638Z,4.13
2022-10-12T18:57:01.592Z,6.20
2022-10-12T18:59:28.292Z,4.27
2022-10-12T19:01:54.999Z,3.87
2022-10-12T19:04:21.717Z,6.87
2022-10-12T19:06:48.362Z,6.03
2022-10-12T19:09:14.985Z,3.97
2022-10-12T19:11:41.757Z,2.33
2022-10-12T19:14:15.667Z,10.20
2022-10-12T19:16:53.518Z,3.27
2022-10-12T19:19:21.594Z,3.30
2022-10-12T19:21:50.282Z,3.73
2022-10-12T19:24:18.057Z,5.83
2022-10-12T19:26:44.839Z,3.07
2022-10-12T19:29:14.794Z,2.67
2022-10-12T19:31:45.571Z,3.60
2022-10-12T19:34:14.314Z,3.57
2022-10-12T19:36:41.638Z,8.40
2022-10-12T19:39:12.590Z,3.20
2022-10-12T19:41:40.106Z,4.13
2022-10-12T19:44:06.930Z,5.47
2022-10-12T19:46:33.854Z,8.17
2022-10-12T19:49:00.714Z,6.13
2022-10-12T19:51:29.422Z,7.13
2022-10-12T19:53:57.850Z,5.50
2022-10-12T19:56:25.865Z,4.47
2022-10-12T19:58:55.563Z,6.27
2022-10-12T20:01:28.603Z,3.20
2022-10-12T20:03:58.416Z,3.37
2022-10-12T20:06:28.587Z,3.30
2022-10-12T20:08:57.870Z,7.30
2022-10-12T20:11:25.189Z,2.53
2022-10-12T20:13:52.537Z,5.03
2022-10-12T20:16:20.390Z,9.20
2022-10-12T20:18:47.637Z,9.70
2022-10-12T20:21:16.491Z,7.50
2022-10-12T20:23:43.768Z,5.23
2022-10-12T20:26:14.798Z,2.87
2022-10-12T20:28:41.513Z,3.00
2022-10-12T20:31:08.353Z,5.93
2022-10-12T20:33:37.612Z,3.20
2022-10-12T20:36:08.723Z,5.07
2022-10-12T20:38:35.360Z,4.40
2022-10-12T20:41:06.920Z,8.63
2022-10-12T20:43:33.803Z,3.77
2022-10-12T20:46:05.156Z,2.27
2022-10-12T20:48:32.550Z,1.90
2022-10-12T20:50:59.597Z,5.87
2022-10-12T20:53:28.618Z,2.97
2022-10-12T20:55:57.259Z,2.97
2022-10-12T20:58:28.030Z,3.03
2022-10-12T21:01:12.743Z,4.73
2022-10-12T21:03:53.467Z,2.37
2022-10-12T21:06:22.746Z,2.70
2022-10-12T21:08:50.913Z,2.73
2022-10-12T21:11:19.060Z,2.37
2022-10-12T21:13:46.127Z,3.93
2022-10-12T21:16:14.294Z,4.47
2022-10-12T21:18:44.023Z,4.47
2022-10-12T21:21:21.092Z,6.90
2022-10-12T21:24:01.297Z,2.50
2022-10-12T21:26:30.085Z,2.93
2022-10-12T21:28:58.999Z,2.90
2022-10-12T21:31:31.821Z,3.37
2022-10-12T21:34:01.788Z,4.53
2022-10-12T21:36:29.568Z,4.43
2022-10-12T21:38:59.873Z,4.50
2022-10-12T21:41:30.949Z,4.40
2022-10-12T21:43:59.900Z,4.37
2022-10-12T21:46:34.047Z,8.87
2022-10-12T21:49:02.170Z,3.10
2022-10-12T21:51:31.473Z,1.80
2022-10-12T21:53:58.474Z,2.43
2022-10-12T21:56:30.581Z,2.87
2022-10-12T21:59:02.674Z,2.87
2022-10-12T22:01:35.939Z,4.90
2022-10-12T22:04:06.828Z,3.13
2022-10-12T22:06:34.934Z,4.20
2022-10-12T22:09:08.111Z,2.10
2022-10-12T22:11:36.832Z,4.03
2022-10-12T22:14:07.363Z,5.07
2022-10-12T22:16:34.273Z,4.30
2022-10-12T22:19:02.687Z,2.60
2022-10-12T22:21:32.651Z,3.07
2022-10-12T22:24:02.568Z,2.80
2022-10-12T22:26:32.128Z,2.70
2022-10-12T22:29:00.419Z,5.17
2022-10-12T22:31:27.590Z,3.57
2022-10-12T22:33:55.288Z,2.93
2022-10-12T22:36:24.614Z,3.43
2022-10-12T22:38:51.254Z,3.70
2022-10-12T22:41:22.164Z,6.73
2022-10-12T22:43:53.737Z,4.40
2022-10-12T22:46:22.437Z,4.60
2022-10-12T22:48:49.799Z,4.40
2022-10-12T22:51:22.686Z,2.60
2022-10-12T22:53:49.341Z,3.63
2022-10-12T22:56:19.657Z,3.43
2022-10-12T22:58:48.841Z,1.60
2022-10-12T23:01:17.333Z,4.40
2022-10-12T23:03:46.568Z,3.07
2022-10-12T23:06:16.001Z,6.93
2022-10-12T23:08:46.122Z,2.70
2022-10-12T23:11:19.152Z,3.60
2022-10-12T23:13:48.900Z,5.47
2022-10-12T23:16:23.987Z,3.87
2022-10-12T23:18:59.097Z,2.57
2022-10-12T23:21:30.366Z,5.70
2022-10-12T23:24:01.222Z,5.13
2022-10-12T23:26:30.729Z,5.33
2022-10-12T23:28:57.786Z,4.33
2022-10-12T23:31:27.793Z,3.83
2022-10-12T23:33:56.494Z,5.47
2022-10-12T23:36:23.110Z,3.40
2022-10-12T23:38:49.807Z,4.87
2022-10-12T23:41:16.414Z,4.03
2022-10-12T23:43:46.640Z,5.80
2022-10-12T23:46:13.423Z,4.27
2022-10-12T23:48:43.040Z,7.80
2022-10-12T23:51:09.846Z,3.00
2022-10-12T23:53:41.949Z,4.20
2022-10-12T23:56:11.813Z,4.87
2022-10-12T23:58:38.763Z,5.77
